sensor_id;sensor_type;location;lat;lon;timestamp;temperature;humidity
14378;DHT22;7272;53.668;9.578;2023-12-29T00:02:19;10.70;99.90
14378;DHT22;7272;53.668;9.578;2023-12-29T00:05:21;10.70;99.90
14378;DHT22;7272;53.668;9.578;2023-12-29T00:08:22;10.70;99.90
14378;DHT22;7272;53.668;9.578;2023-12-29T00:11:24;10.60;99.90
14378;DHT22;7272;53.668;9.578;2023-12-29T00:14:25;10.60;99.90
14378;DHT22;7272;53.668;9.578;2023-12-29T00:17:26;10.60;99.90
14378;DHT22;7272;53.668;9.578;2023-12-29T00:20:28;10.60;99.90
14378;DHT22;7272;53.668;9.578;2023-12-29T00:23:30;10.60;99.90
14378;DHT22;7272;53.668;9.578;2023-12-29T00:26:31;10.60;99.90
14378;DHT22;7272;53.668;9.578;2023-12-29T00:29:34;10.50;99.90
14378;DHT22;7272;53.668;9.578;2023-12-29T00:32:36;10.50;99.90
14378;DHT22;7272;53.668;9.578;2023-12-29T00:35:38;10.50;99.90
14378;DHT22;7272;53.668;9.578;2023-12-29T00:38:39;10.50;99.90
14378;DHT22;7272;53.668;9.578;2023-12-29T00:41:41;10.40;99.90
14378;DHT22;7272;53.668;9.578;2023-12-29T00:44:42;10.40;99.90
14378;DHT22;7272;53.668;9.578;2023-12-29T00:47:43;10.40;99.90
14378;DHT22;7272;53.668;9.578;2023-12-29T00:50:45;10.40;99.90
14378;DHT22;7272;53.668;9.578;2023-12-29T00:53:46;10.40;99.90
14378;DHT22;7272;53.668;9.578;2023-12-29T00:56:51;10.40;99.90
14378;DHT22;7272;53.668;9.578;2023-12-29T00:59:52;10.40;99.90
14378;DHT22;7272;53.668;9.578;2023-12-29T01:02:54;10.40;99.90
14378;DHT22;7272;53.668;9.578;2023-12-29T01:05:55;10.40;99.90
14378;DHT22;7272;53.668;9.578;2023-12-29T01:08:56;10.40;99.90
14378;DHT22;7272;53.668;9.578;2023-12-29T01:11:58;10.40;99.90
14378;DHT22;7272;53.668;9.578;2023-12-29T01:14:59;10.40;99.90
14378;DHT22;7272;53.668;9.578;2023-12-29T01:18:01;10.40;99.90
14378;DHT22;7272;53.668;9.578;2023-12-29T01:21:02;10.50;99.90
14378;DHT22;7272;53.668;9.578;2023-12-29T01:24:04;10.50;99.90
14378;DHT22;7272;53.668;9.578;2023-12-29T01:27:07;10.50;99.90
14378;DHT22;7272;53.668;9.578;2023-12-29T01:30:09;10.50;99.90
14378;DHT22;7272;53.668;9.578;2023-12-29T01:33:12;10.60;99.90
14378;DHT22;7272;53.668;9.578;2023-12-29T01:36:17;10.50;99.90
14378;DHT22;7272;53.668;9.578;2023-12-29T01:39:19;10.50;99.90
14378;DHT22;7272;53.668;9.578;2023-12-29T01:42:21;10.50;99.90
14378;DHT22;7272;53.668;9.578;2023-12-29T01:45:23;10.50;99.90
14378;DHT22;7272;53.668;9.578;2023-12-29T01:48:24;10.60;99.90
14378;DHT22;7272;53.668;9.578;2023-12-29T01:51:27;10.60;99.90
14378;DHT22;7272;53.668;9.578;2023-12-29T01:54:31;10.60;99.90
14378;DHT22;7272;53.668;9.578;2023-12-29T01:57:34;10.60;99.90
14378;DHT22;7272;53.668;9.578;2023-12-29T02:00:37;10.60;99.90
14378;DHT22;7272;53.668;9.578;2023-12-29T02:03:38;10.70;99.90
14378;DHT22;7272;53.668;9.578;2023-12-29T02:06:40;10.70;99.90
14378;DHT22;7272;53.668;9.578;2023-12-29T02:09:41;10.70;99.90
14378;DHT22;7272;53.668;9.578;2023-12-29T02:12:46;10.80;99.90
14378;DHT22;7272;53.668;9.578;2023-12-29T02:15:48;10.80;99.90
14378;DHT22;7272;53.668;9.578;2023-12-29T02:18:51;10.90;99.90
14378;DHT22;7272;53.668;9.578;2023-12-29T02:21:54;10.90;99.90
14378;DHT22;7272;53.668;9.578;2023-12-29T02:24:55;10.90;99.90
14378;DHT22;7272;53.668;9.578;2023-12-29T02:28:01;11.00;99.90
14378;DHT22;7272;53.668;9.578;2023-12-29T02:31:09;11.00;99.90
14378;DHT22;7272;53.668;9.578;2023-12-29T02:34:12;11.00;99.90
14378;DHT22;7272;53.668;9.578;2023-12-29T02:37:15;11.00;99.90
14378;DHT22;7272;53.668;9.578;2023-12-29T02:40:17;11.00;99.90
14378;DHT22;7272;53.668;9.578;2023-12-29T02:43:19;10.90;99.90
14378;DHT22;7272;53.668;9.578;2023-12-29T02:46:20;10.90;99.90
14378;DHT22;7272;53.668;9.578;2023-12-29T02:49:21;10.80;99.90
14378;DHT22;7272;53.668;9.578;2023-12-29T02:52:23;10.70;99.90
14378;DHT22;7272;53.668;9.578;2023-12-29T02:55:24;10.60;99.90
14378;DHT22;7272;53.668;9.578;2023-12-29T02:58:26;10.30;99.90
14378;DHT22;7272;53.668;9.578;2023-12-29T03:01:28;10.20;99.90
14378;DHT22;7272;53.668;9.578;2023-12-29T03:04:29;10.00;99.90
14378;DHT22;7272;53.668;9.578;2023-12-29T03:07:31;9.70;99.90
14378;DHT22;7272;53.668;9.578;2023-12-29T03:10:33;9.60;99.90
14378;DHT22;7272;53.668;9.578;2023-12-29T03:13:34;9.40;99.90
14378;DHT22;7272;53.668;9.578;2023-12-29T03:16:35;9.50;99.90
14378;DHT22;7272;53.668;9.578;2023-12-29T03:19:36;9.50;99.90
14378;DHT22;7272;53.668;9.578;2023-12-29T03:22:37;9.50;99.90
14378;DHT22;7272;53.668;9.578;2023-12-29T03:25:39;9.60;99.90
14378;DHT22;7272;53.668;9.578;2023-12-29T03:28:40;9.80;99.90
14378;DHT22;7272;53.668;9.578;2023-12-29T03:31:42;10.00;99.90
14378;DHT22;7272;53.668;9.578;2023-12-29T03:34:43;10.10;99.90
14378;DHT22;7272;53.668;9.578;2023-12-29T03:37:44;10.20;99.90
14378;DHT22;7272;53.668;9.578;2023-12-29T03:40:46;10.30;99.90
14378;DHT22;7272;53.668;9.578;2023-12-29T03:43:47;10.30;99.90
14378;DHT22;7272;53.668;9.578;2023-12-29T03:46:50;10.40;99.90
14378;DHT22;7272;53.668;9.578;2023-12-29T03:49:52;10.40;99.90
14378;DHT22;7272;53.668;9.578;2023-12-29T03:52:53;10.40;99.90
14378;DHT22;7272;53.668;9.578;2023-12-29T03:55:55;10.30;99.90
14378;DHT22;7272;53.668;9.578;2023-12-29T03:58:56;10.40;99.90
14378;DHT22;7272;53.668;9.578;2023-12-29T04:01:58;10.30;99.90
14378;DHT22;7272;53.668;9.578;2023-12-29T04:04:59;10.30;99.90
14378;DHT22;7272;53.668;9.578;2023-12-29T04:08:02;10.30;99.90
14378;DHT22;7272;53.668;9.578;2023-12-29T04:11:05;10.10;99.90
14378;DHT22;7272;53.668;9.578;2023-12-29T04:14:06;9.90;99.90
14378;DHT22;7272;53.668;9.578;2023-12-29T04:17:09;9.80;99.90
14378;DHT22;7272;53.668;9.578;2023-12-29T04:20:15;9.60;99.90
14378;DHT22;7272;53.668;9.578;2023-12-29T04:23:16;9.50;99.90
14378;DHT22;7272;53.668;9.578;2023-12-29T04:26:19;9.50;99.90
14378;DHT22;7272;53.668;9.578;2023-12-29T04:29:20;9.40;99.90
14378;DHT22;7272;53.668;9.578;2023-12-29T04:32:21;9.30;99.90
14378;DHT22;7272;53.668;9.578;2023-12-29T04:35:22;9.30;99.90
14378;DHT22;7272;53.668;9.578;2023-12-29T04:38:24;9.20;99.90
14378;DHT22;7272;53.668;9.578;2023-12-29T04:41:25;9.10;99.90
14378;DHT22;7272;53.668;9.578;2023-12-29T04:44:27;9.10;99.90
14378;DHT22;7272;53.668;9.578;2023-12-29T04:47:28;9.10;99.90
14378;DHT22;7272;53.668;9.578;2023-12-29T04:50:29;9.10;99.90
14378;DHT22;7272;53.668;9.578;2023-12-29T04:53:30;9.10;99.90
14378;DHT22;7272;53.668;9.578;2023-12-29T04:56:32;9.10;99.90
14378;DHT22;7272;53.668;9.578;2023-12-29T04:59:33;9.10;99.90
14378;DHT22;7272;53.668;9.578;2023-12-29T05:02:35;9.20;99.90
14378;DHT22;7272;53.668;9.578;2023-12-29T05:05:36;9.20;99.90
14378;DHT22;7272;53.668;9.578;2023-12-29T05:08:37;9.20;99.90
14378;DHT22;7272;53.668;9.578;2023-12-29T05:11:39;9.20;99.90
14378;DHT22;7272;53.668;9.578;2023-12-29T05:14:40;9.30;99.90
14378;DHT22;7272;53.668;9.578;2023-12-29T05:17:42;9.20;99.90
14378;DHT22;7272;53.668;9.578;2023-12-29T05:20:43;9.20;99.90
14378;DHT22;7272;53.668;9.578;2023-12-29T05:23:44;9.20;99.90
14378;DHT22;7272;53.668;9.578;2023-12-29T05:26:46;9.20;99.90
14378;DHT22;7272;53.668;9.578;2023-12-29T05:29:47;9.20;99.90
14378;DHT22;7272;53.668;9.578;2023-12-29T05:32:49;9.20;99.90
14378;DHT22;7272;53.668;9.578;2023-12-29T05:35:51;9.10;99.90
14378;DHT22;7272;53.668;9.578;2023-12-29T05:38:53;9.10;99.90
14378;DHT22;7272;53.668;9.578;2023-12-29T05:41:55;9.20;99.90
14378;DHT22;7272;53.668;9.578;2023-12-29T05:44:56;9.20;99.90
14378;DHT22;7272;53.668;9.578;2023-12-29T05:47:57;9.20;99.90
14378;DHT22;7272;53.668;9.578;2023-12-29T05:50:59;9.20;99.90
14378;DHT22;7272;53.668;9.578;2023-12-29T05:54:01;9.20;99.90
14378;DHT22;7272;53.668;9.578;2023-12-29T05:57:04;9.20;99.90
14378;DHT22;7272;53.668;9.578;2023-12-29T06:00:06;9.20;99.90
14378;DHT22;7272;53.668;9.578;2023-12-29T06:03:12;9.20;99.90
14378;DHT22;7272;53.668;9.578;2023-12-29T06:06:14;9.20;99.90
14378;DHT22;7272;53.668;9.578;2023-12-29T06:09:17;9.20;99.90
14378;DHT22;7272;53.668;9.578;2023-12-29T06:12:19;9.20;99.90
14378;DHT22;7272;53.668;9.578;2023-12-29T06:15:20;9.20;99.90
14378;DHT22;7272;53.668;9.578;2023-12-29T06:18:23;9.20;99.90
14378;DHT22;7272;53.668;9.578;2023-12-29T06:21:24;9.20;99.90
14378;DHT22;7272;53.668;9.578;2023-12-29T06:24:25;9.20;99.90
14378;DHT22;7272;53.668;9.578;2023-12-29T06:27:27;9.20;99.90
14378;DHT22;7272;53.668;9.578;2023-12-29T06:30:28;9.30;99.90
14378;DHT22;7272;53.668;9.578;2023-12-29T06:33:30;9.30;99.90
14378;DHT22;7272;53.668;9.578;2023-12-29T06:36:31;9.30;99.90
14378;DHT22;7272;53.668;9.578;2023-12-29T06:39:33;9.30;99.90
14378;DHT22;7272;53.668;9.578;2023-12-29T06:42:35;9.40;99.90
14378;DHT22;7272;53.668;9.578;2023-12-29T06:45:36;9.40;99.90
14378;DHT22;7272;53.668;9.578;2023-12-29T06:48:38;9.40;99.90
14378;DHT22;7272;53.668;9.578;2023-12-29T06:51:39;9.50;99.90
14378;DHT22;7272;53.668;9.578;2023-12-29T06:54:41;9.50;99.90
14378;DHT22;7272;53.668;9.578;2023-12-29T06:57:43;9.60;99.90
14378;DHT22;7272;53.668;9.578;2023-12-29T07:00:45;9.60;99.90
14378;DHT22;7272;53.668;9.578;2023-12-29T07:03:46;9.70;99.90
14378;DHT22;7272;53.668;9.578;2023-12-29T07:06:47;9.70;99.90
14378;DHT22;7272;53.668;9.578;2023-12-29T07:09:48;9.80;99.90
14378;DHT22;7272;53.668;9.578;2023-12-29T07:12:50;9.80;99.90
14378;DHT22;7272;53.668;9.578;2023-12-29T07:15:52;9.90;99.90
14378;DHT22;7272;53.668;9.578;2023-12-29T07:18:53;9.90;99.90
14378;DHT22;7272;53.668;9.578;2023-12-29T07:21:55;9.90;99.90
14378;DHT22;7272;53.668;9.578;2023-12-29T07:24:56;10.00;99.90
14378;DHT22;7272;53.668;9.578;2023-12-29T07:27:58;10.00;99.90
14378;DHT22;7272;53.668;9.578;2023-12-29T07:30:59;10.00;99.90
14378;DHT22;7272;53.668;9.578;2023-12-29T07:34:01;10.00;99.90
14378;DHT22;7272;53.668;9.578;2023-12-29T07:37:02;10.10;99.90
14378;DHT22;7272;53.668;9.578;2023-12-29T07:40:04;10.10;99.90
14378;DHT22;7272;53.668;9.578;2023-12-29T07:43:09;10.20;99.90
14378;DHT22;7272;53.668;9.578;2023-12-29T07:46:10;10.20;99.90
14378;DHT22;7272;53.668;9.578;2023-12-29T07:49:11;10.20;99.90
14378;DHT22;7272;53.668;9.578;2023-12-29T07:52:13;10.20;99.90
14378;DHT22;7272;53.668;9.578;2023-12-29T07:55:14;10.30;99.90
14378;DHT22;7272;53.668;9.578;2023-12-29T07:58:17;10.30;99.90
14378;DHT22;7272;53.668;9.578;2023-12-29T08:01:19;10.30;99.90
14378;DHT22;7272;53.668;9.578;2023-12-29T08:04:20;10.30;99.90
14378;DHT22;7272;53.668;9.578;2023-12-29T08:07:21;10.30;99.90
14378;DHT22;7272;53.668;9.578;2023-12-29T08:10:22;10.30;99.90
14378;DHT22;7272;53.668;9.578;2023-12-29T08:13:24;10.40;99.90
14378;DHT22;7272;53.668;9.578;2023-12-29T08:16:25;10.30;99.90
14378;DHT22;7272;53.668;9.578;2023-12-29T08:19:27;10.30;99.90
14378;DHT22;7272;53.668;9.578;2023-12-29T08:22:29;10.30;99.90
14378;DHT22;7272;53.668;9.578;2023-12-29T08:25:31;10.40;99.90
14378;DHT22;7272;53.668;9.578;2023-12-29T08:28:33;10.40;99.90
14378;DHT22;7272;53.668;9.578;2023-12-29T08:31:34;10.50;99.90
14378;DHT22;7272;53.668;9.578;2023-12-29T08:34:35;10.50;99.90
14378;DHT22;7272;53.668;9.578;2023-12-29T08:37:38;10.50;99.90
14378;DHT22;7272;53.668;9.578;2023-12-29T08:40:40;10.60;99.90
14378;DHT22;7272;53.668;9.578;2023-12-29T08:43:42;10.60;99.90
14378;DHT22;7272;53.668;9.578;2023-12-29T08:46:43;10.60;99.90
14378;DHT22;7272;53.668;9.578;2023-12-29T08:49:44;10.50;99.90
14378;DHT22;7272;53.668;9.578;2023-12-29T08:52:46;10.30;99.90
14378;DHT22;7272;53.668;9.578;2023-12-29T08:55:47;10.10;99.90
14378;DHT22;7272;53.668;9.578;2023-12-29T08:58:49;9.90;99.90
14378;DHT22;7272;53.668;9.578;2023-12-29T09:01:50;9.60;99.90
14378;DHT22;7272;53.668;9.578;2023-12-29T09:04:52;9.30;99.90
14378;DHT22;7272;53.668;9.578;2023-12-29T09:07:53;9.20;99.90
14378;DHT22;7272;53.668;9.578;2023-12-29T09:10:55;9.00;99.90
14378;DHT22;7272;53.668;9.578;2023-12-29T09:13:57;9.00;99.90
14378;DHT22;7272;53.668;9.578;2023-12-29T09:16:58;8.90;99.90
14378;DHT22;7272;53.668;9.578;2023-12-29T09:19:59;8.90;99.90
14378;DHT22;7272;53.668;9.578;2023-12-29T09:23:00;8.90;99.90
14378;DHT22;7272;53.668;9.578;2023-12-29T09:26:04;8.90;99.90
14378;DHT22;7272;53.668;9.578;2023-12-29T09:29:06;8.90;99.90
14378;DHT22;7272;53.668;9.578;2023-12-29T09:32:07;9.00;99.90
14378;DHT22;7272;53.668;9.578;2023-12-29T09:35:08;8.90;99.90
14378;DHT22;7272;53.668;9.578;2023-12-29T09:38:09;9.00;99.90
14378;DHT22;7272;53.668;9.578;2023-12-29T09:41:14;8.90;99.90
14378;DHT22;7272;53.668;9.578;2023-12-29T09:44:16;9.00;99.90
14378;DHT22;7272;53.668;9.578;2023-12-29T09:47:24;9.00;99.90
14378;DHT22;7272;53.668;9.578;2023-12-29T09:50:26;9.10;99.90
14378;DHT22;7272;53.668;9.578;2023-12-29T09:53:27;9.20;99.90
14378;DHT22;7272;53.668;9.578;2023-12-29T09:56:30;9.20;99.90
14378;DHT22;7272;53.668;9.578;2023-12-29T09:59:32;9.20;99.90
14378;DHT22;7272;53.668;9.578;2023-12-29T10:02:35;9.30;99.90
14378;DHT22;7272;53.668;9.578;2023-12-29T10:05:37;9.40;99.90
14378;DHT22;7272;53.668;9.578;2023-12-29T10:08:45;9.50;99.90
14378;DHT22;7272;53.668;9.578;2023-12-29T10:11:47;9.60;99.90
14378;DHT22;7272;53.668;9.578;2023-12-29T10:14:57;9.80;99.90
14378;DHT22;7272;53.668;9.578;2023-12-29T10:18:05;9.80;99.90
14378;DHT22;7272;53.668;9.578;2023-12-29T10:21:12;9.90;99.90
14378;DHT22;7272;53.668;9.578;2023-12-29T10:24:19;10.00;99.90
14378;DHT22;7272;53.668;9.578;2023-12-29T10:27:22;10.00;99.90
14378;DHT22;7272;53.668;9.578;2023-12-29T10:30:24;10.10;99.90
14378;DHT22;7272;53.668;9.578;2023-12-29T10:33:25;10.10;99.90
14378;DHT22;7272;53.668;9.578;2023-12-29T10:36:27;10.20;99.90
14378;DHT22;7272;53.668;9.578;2023-12-29T10:39:28;10.30;99.90
14378;DHT22;7272;53.668;9.578;2023-12-29T10:42:29;10.30;99.90
14378;DHT22;7272;53.668;9.578;2023-12-29T10:45:31;10.30;99.90
14378;DHT22;7272;53.668;9.578;2023-12-29T10:48:32;10.40;99.90
14378;DHT22;7272;53.668;9.578;2023-12-29T10:51:33;10.40;99.90
14378;DHT22;7272;53.668;9.578;2023-12-29T10:54:35;10.40;99.90
14378;DHT22;7272;53.668;9.578;2023-12-29T10:57:36;10.50;99.90
14378;DHT22;7272;53.668;9.578;2023-12-29T11:00:38;10.50;99.90
14378;DHT22;7272;53.668;9.578;2023-12-29T11:03:40;10.50;99.90
14378;DHT22;7272;53.668;9.578;2023-12-29T11:06:42;10.50;99.90
14378;DHT22;7272;53.668;9.578;2023-12-29T11:09:45;10.50;99.90
14378;DHT22;7272;53.668;9.578;2023-12-29T11:12:47;10.40;99.90
14378;DHT22;7272;53.668;9.578;2023-12-29T11:15:51;10.50;99.90
14378;DHT22;7272;53.668;9.578;2023-12-29T11:18:55;10.50;99.90
14378;DHT22;7272;53.668;9.578;2023-12-29T11:21:57;10.50;99.90
14378;DHT22;7272;53.668;9.578;2023-12-29T11:24:59;10.40;99.90
14378;DHT22;7272;53.668;9.578;2023-12-29T11:28:00;10.50;99.90
14378;DHT22;7272;53.668;9.578;2023-12-29T11:31:03;10.50;99.90
14378;DHT22;7272;53.668;9.578;2023-12-29T11:34:08;10.60;99.90
14378;DHT22;7272;53.668;9.578;2023-12-29T11:37:18;10.60;99.90
14378;DHT22;7272;53.668;9.578;2023-12-29T11:40:26;10.60;99.90
14378;DHT22;7272;53.668;9.578;2023-12-29T11:43:29;10.60;99.90
14378;DHT22;7272;53.668;9.578;2023-12-29T11:46:35;10.60;99.90
14378;DHT22;7272;53.668;9.578;2023-12-29T11:49:57;10.70;99.90
14378;DHT22;7272;53.668;9.578;2023-12-29T11:53:00;10.70;99.90
14378;DHT22;7272;53.668;9.578;2023-12-29T11:56:14;10.70;99.90
14378;DHT22;7272;53.668;9.578;2023-12-29T11:59:17;10.80;99.90
14378;DHT22;7272;53.668;9.578;2023-12-29T12:02:27;10.80;99.90
14378;DHT22;7272;53.668;9.578;2023-12-29T12:05:46;10.90;99.90
14378;DHT22;7272;53.668;9.578;2023-12-29T12:08:48;10.90;99.90
14378;DHT22;7272;53.668;9.578;2023-12-29T12:11:49;11.00;99.90
14378;DHT22;7272;53.668;9.578;2023-12-29T12:14:51;11.10;99.90
14378;DHT22;7272;53.668;9.578;2023-12-29T12:17:53;11.10;99.90
14378;DHT22;7272;53.668;9.578;2023-12-29T12:20:55;11.00;99.90
14378;DHT22;7272;53.668;9.578;2023-12-29T12:23:58;11.10;99.90
14378;DHT22;7272;53.668;9.578;2023-12-29T12:27:00;11.20;99.90
14378;DHT22;7272;53.668;9.578;2023-12-29T12:30:03;11.30;99.90
14378;DHT22;7272;53.668;9.578;2023-12-29T12:33:05;11.40;99.90
14378;DHT22;7272;53.668;9.578;2023-12-29T12:36:07;11.50;99.90
14378;DHT22;7272;53.668;9.578;2023-12-29T12:39:09;11.50;99.90
14378;DHT22;7272;53.668;9.578;2023-12-29T12:42:11;11.50;99.90
14378;DHT22;7272;53.668;9.578;2023-12-29T12:45:13;11.40;99.90
14378;DHT22;7272;53.668;9.578;2023-12-29T12:48:23;11.30;99.90
14378;DHT22;7272;53.668;9.578;2023-12-29T12:51:24;11.20;99.90
14378;DHT22;7272;53.668;9.578;2023-12-29T12:54:26;11.20;99.90
14378;DHT22;7272;53.668;9.578;2023-12-29T12:57:28;11.10;99.90
14378;DHT22;7272;53.668;9.578;2023-12-29T13:00:30;11.10;99.90
14378;DHT22;7272;53.668;9.578;2023-12-29T13:03:32;11.10;99.90
14378;DHT22;7272;53.668;9.578;2023-12-29T13:06:34;11.10;99.90
14378;DHT22;7272;53.668;9.578;2023-12-29T13:09:39;11.10;99.90
14378;DHT22;7272;53.668;9.578;2023-12-29T13:12:40;11.00;99.90
14378;DHT22;7272;53.668;9.578;2023-12-29T13:15:52;10.90;99.90
14378;DHT22;7272;53.668;9.578;2023-12-29T13:18:54;10.90;99.90
14378;DHT22;7272;53.668;9.578;2023-12-29T13:21:56;10.90;99.90
14378;DHT22;7272;53.668;9.578;2023-12-29T13:24:57;10.90;99.90
14378;DHT22;7272;53.668;9.578;2023-12-29T13:27:58;10.80;99.90
14378;DHT22;7272;53.668;9.578;2023-12-29T13:31:01;10.70;99.90
14378;DHT22;7272;53.668;9.578;2023-12-29T13:34:06;10.60;99.90
14378;DHT22;7272;53.668;9.578;2023-12-29T13:37:17;10.50;99.90
14378;DHT22;7272;53.668;9.578;2023-12-29T13:40:24;10.50;99.90
14378;DHT22;7272;53.668;9.578;2023-12-29T13:43:29;10.40;99.90
14378;DHT22;7272;53.668;9.578;2023-12-29T13:46:32;10.40;99.90
14378;DHT22;7272;53.668;9.578;2023-12-29T13:49:34;10.40;99.90
14378;DHT22;7272;53.668;9.578;2023-12-29T13:52:37;10.40;99.90
14378;DHT22;7272;53.668;9.578;2023-12-29T13:55:38;10.40;99.90
14378;DHT22;7272;53.668;9.578;2023-12-29T13:58:40;10.40;99.90
14378;DHT22;7272;53.668;9.578;2023-12-29T14:01:41;10.30;99.90
14378;DHT22;7272;53.668;9.578;2023-12-29T14:04:43;10.20;99.90
14378;DHT22;7272;53.668;9.578;2023-12-29T14:07:47;10.10;99.90
14378;DHT22;7272;53.668;9.578;2023-12-29T14:10:53;10.10;99.90
14378;DHT22;7272;53.668;9.578;2023-12-29T14:13:54;10.00;99.90
14378;DHT22;7272;53.668;9.578;2023-12-29T14:16:56;9.90;99.90
14378;DHT22;7272;53.668;9.578;2023-12-29T14:19:58;9.90;99.90
14378;DHT22;7272;53.668;9.578;2023-12-29T14:23:05;9.90;99.90
14378;DHT22;7272;53.668;9.578;2023-12-29T14:26:06;9.90;99.90
14378;DHT22;7272;53.668;9.578;2023-12-29T14:29:10;9.90;99.90
14378;DHT22;7272;53.668;9.578;2023-12-29T14:32:11;9.90;99.90
14378;DHT22;7272;53.668;9.578;2023-12-29T14:35:13;9.90;99.90
14378;DHT22;7272;53.668;9.578;2023-12-29T14:38:14;9.90;99.90
14378;DHT22;7272;53.668;9.578;2023-12-29T14:41:18;9.80;99.90
14378;DHT22;7272;53.668;9.578;2023-12-29T14:44:19;9.80;99.90
14378;DHT22;7272;53.668;9.578;2023-12-29T14:47:21;9.80;99.90
14378;DHT22;7272;53.668;9.578;2023-12-29T14:50:23;9.80;99.90
14378;DHT22;7272;53.668;9.578;2023-12-29T14:53:24;9.80;99.90
14378;DHT22;7272;53.668;9.578;2023-12-29T14:56:26;9.80;99.90
14378;DHT22;7272;53.668;9.578;2023-12-29T14:59:27;9.80;99.90
14378;DHT22;7272;53.668;9.578;2023-12-29T15:02:28;9.80;99.90
14378;DHT22;7272;53.668;9.578;2023-12-29T15:05:30;9.80;99.90
14378;DHT22;7272;53.668;9.578;2023-12-29T15:08:31;9.80;99.90
14378;DHT22;7272;53.668;9.578;2023-12-29T15:11:35;9.80;99.90
14378;DHT22;7272;53.668;9.578;2023-12-29T15:14:37;9.80;99.90
14378;DHT22;7272;53.668;9.578;2023-12-29T15:17:39;9.80;99.90
14378;DHT22;7272;53.668;9.578;2023-12-29T15:20:40;9.80;99.90
14378;DHT22;7272;53.668;9.578;2023-12-29T15:23:42;9.70;99.90
14378;DHT22;7272;53.668;9.578;2023-12-29T15:26:43;9.70;99.90
14378;DHT22;7272;53.668;9.578;2023-12-29T15:29:44;9.60;99.90
14378;DHT22;7272;53.668;9.578;2023-12-29T15:32:45;9.60;99.90
14378;DHT22;7272;53.668;9.578;2023-12-29T15:35:47;9.60;99.90
14378;DHT22;7272;53.668;9.578;2023-12-29T15:38:49;9.60;99.90
14378;DHT22;7272;53.668;9.578;2023-12-29T15:41:51;9.50;99.90
14378;DHT22;7272;53.668;9.578;2023-12-29T15:44:52;9.50;99.90
14378;DHT22;7272;53.668;9.578;2023-12-29T15:47:53;9.50;99.90
14378;DHT22;7272;53.668;9.578;2023-12-29T15:50:57;9.50;99.90
14378;DHT22;7272;53.668;9.578;2023-12-29T15:53:58;9.50;99.90
14378;DHT22;7272;53.668;9.578;2023-12-29T15:56:59;9.50;99.90
14378;DHT22;7272;53.668;9.578;2023-12-29T16:00:04;9.50;99.90
14378;DHT22;7272;53.668;9.578;2023-12-29T16:03:12;9.50;99.90
14378;DHT22;7272;53.668;9.578;2023-12-29T16:06:18;9.50;99.90
14378;DHT22;7272;53.668;9.578;2023-12-29T16:09:20;9.50;99.90
14378;DHT22;7272;53.668;9.578;2023-12-29T16:12:21;9.50;99.90
14378;DHT22;7272;53.668;9.578;2023-12-29T16:15:22;9.40;99.90
14378;DHT22;7272;53.668;9.578;2023-12-29T16:18:24;9.40;99.90
14378;DHT22;7272;53.668;9.578;2023-12-29T16:21:26;9.40;99.90
14378;DHT22;7272;53.668;9.578;2023-12-29T16:24:28;9.30;99.90
14378;DHT22;7272;53.668;9.578;2023-12-29T16:27:30;9.30;99.90
14378;DHT22;7272;53.668;9.578;2023-12-29T16:30:31;9.30;99.90
14378;DHT22;7272;53.668;9.578;2023-12-29T16:33:32;9.30;99.90
14378;DHT22;7272;53.668;9.578;2023-12-29T16:36:35;9.30;99.90
14378;DHT22;7272;53.668;9.578;2023-12-29T16:39:40;9.30;99.90
14378;DHT22;7272;53.668;9.578;2023-12-29T16:42:41;9.30;99.90
14378;DHT22;7272;53.668;9.578;2023-12-29T16:45:43;9.30;99.90
14378;DHT22;7272;53.668;9.578;2023-12-29T16:48:44;9.30;99.90
14378;DHT22;7272;53.668;9.578;2023-12-29T16:51:46;9.30;99.90
14378;DHT22;7272;53.668;9.578;2023-12-29T16:54:47;9.30;99.90
14378;DHT22;7272;53.668;9.578;2023-12-29T16:57:48;9.30;99.90
14378;DHT22;7272;53.668;9.578;2023-12-29T17:00:50;9.20;99.90
14378;DHT22;7272;53.668;9.578;2023-12-29T17:03:53;9.20;99.90
14378;DHT22;7272;53.668;9.578;2023-12-29T17:06:55;9.20;99.90
14378;DHT22;7272;53.668;9.578;2023-12-29T17:09:56;9.30;99.90
14378;DHT22;7272;53.668;9.578;2023-12-29T17:12:57;9.30;99.90
14378;DHT22;7272;53.668;9.578;2023-12-29T17:15:58;9.30;99.90
14378;DHT22;7272;53.668;9.578;2023-12-29T17:18:59;9.30;99.90
14378;DHT22;7272;53.668;9.578;2023-12-29T17:22:02;9.30;99.90
14378;DHT22;7272;53.668;9.578;2023-12-29T17:25:04;9.30;99.90
14378;DHT22;7272;53.668;9.578;2023-12-29T17:28:06;9.30;99.90
14378;DHT22;7272;53.668;9.578;2023-12-29T17:31:07;9.30;99.90
14378;DHT22;7272;53.668;9.578;2023-12-29T17:34:08;9.30;99.90
14378;DHT22;7272;53.668;9.578;2023-12-29T17:37:10;9.30;99.90
14378;DHT22;7272;53.668;9.578;2023-12-29T17:40:12;9.40;99.90
14378;DHT22;7272;53.668;9.578;2023-12-29T17:43:13;9.40;99.90
14378;DHT22;7272;53.668;9.578;2023-12-29T17:46:14;9.40;99.90
14378;DHT22;7272;53.668;9.578;2023-12-29T17:49:15;9.40;99.90
14378;DHT22;7272;53.668;9.578;2023-12-29T17:52:18;9.40;99.90
14378;DHT22;7272;53.668;9.578;2023-12-29T17:55:19;9.40;99.90
14378;DHT22;7272;53.668;9.578;2023-12-29T17:58:20;9.40;99.90
14378;DHT22;7272;53.668;9.578;2023-12-29T18:01:22;9.40;99.90
14378;DHT22;7272;53.668;9.578;2023-12-29T18:04:23;9.40;99.90
14378;DHT22;7272;53.668;9.578;2023-12-29T18:07:25;9.50;99.90
14378;DHT22;7272;53.668;9.578;2023-12-29T18:10:26;9.50;99.90
14378;DHT22;7272;53.668;9.578;2023-12-29T18:13:27;9.50;99.90
14378;DHT22;7272;53.668;9.578;2023-12-29T18:16:28;9.50;99.90
14378;DHT22;7272;53.668;9.578;2023-12-29T18:19:31;9.40;99.90
14378;DHT22;7272;53.668;9.578;2023-12-29T18:22:33;9.40;99.90
14378;DHT22;7272;53.668;9.578;2023-12-29T18:25:34;9.40;99.90
14378;DHT22;7272;53.668;9.578;2023-12-29T18:28:35;9.40;99.90
14378;DHT22;7272;53.668;9.578;2023-12-29T18:31:43;9.40;99.90
14378;DHT22;7272;53.668;9.578;2023-12-29T18:34:44;9.30;99.90
14378;DHT22;7272;53.668;9.578;2023-12-29T18:37:46;9.30;99.90
14378;DHT22;7272;53.668;9.578;2023-12-29T18:40:47;9.30;99.90
14378;DHT22;7272;53.668;9.578;2023-12-29T18:43:48;9.30;99.90
14378;DHT22;7272;53.668;9.578;2023-12-29T18:46:51;9.30;99.90
14378;DHT22;7272;53.668;9.578;2023-12-29T18:49:52;9.30;99.90
14378;DHT22;7272;53.668;9.578;2023-12-29T18:52:54;9.30;99.90
14378;DHT22;7272;53.668;9.578;2023-12-29T18:55:55;9.30;99.90
14378;DHT22;7272;53.668;9.578;2023-12-29T18:58:57;9.30;99.90
14378;DHT22;7272;53.668;9.578;2023-12-29T19:02:00;9.30;99.90
14378;DHT22;7272;53.668;9.578;2023-12-29T19:05:01;9.40;99.90
14378;DHT22;7272;53.668;9.578;2023-12-29T19:08:05;9.30;99.90
14378;DHT22;7272;53.668;9.578;2023-12-29T19:11:06;9.30;99.90
14378;DHT22;7272;53.668;9.578;2023-12-29T19:14:08;9.30;99.90
14378;DHT22;7272;53.668;9.578;2023-12-29T19:17:09;9.30;99.90
14378;DHT22;7272;53.668;9.578;2023-12-29T19:20:11;9.30;99.90
14378;DHT22;7272;53.668;9.578;2023-12-29T19:23:15;9.30;99.90
14378;DHT22;7272;53.668;9.578;2023-12-29T19:26:19;9.30;99.90
14378;DHT22;7272;53.668;9.578;2023-12-29T19:29:21;9.30;99.90
14378;DHT22;7272;53.668;9.578;2023-12-29T19:32:22;9.20;99.90
14378;DHT22;7272;53.668;9.578;2023-12-29T19:35:23;9.20;99.90
14378;DHT22;7272;53.668;9.578;2023-12-29T19:38:25;9.20;99.90
14378;DHT22;7272;53.668;9.578;2023-12-29T19:41:32;9.20;99.90